Time;durP1;ratioP1;P1;durP2;ratioP2;P2;SDS_P1;SDS_P2;PMS_P1;PMS_P2;Temp;Humidity;BMP_temperature;BMP_pressure;BME280_temperature;BME280_humidity;BME280_pressure;Samples;Min_cycle;Max_cycle;Signal;HPM_P1;HPM_P2
2022/03/14 00:02:02;;;;;;;9.55;7.60;;;4.80;99.90;;;;;;5097326;28;20485;-82
2022/03/14 00:04:29;;;;;;;8.02;7.13;;;4.90;99.90;;;;;;5097046;28;20077;-82
2022/03/14 00:06:56;;;;;;;10.63;7.40;;;4.90;99.90;;;;;;5095695;28;20024;-83
2022/03/14 00:09:22;;;;;;;8.20;7.30;;;4.90;99.90;;;;;;5095751;28;20085;-83
2022/03/14 00:11:48;;;;;;;9.23;7.20;;;4.90;99.90;;;;;;5096087;28;20032;-84
2022/03/14 00:14:14;;;;;;;8.02;6.57;;;4.80;99.90;;;;;;5096998;28;20400;-83
2022/03/14 00:16:41;;;;;;;7.97;6.93;;;4.80;99.90;;;;;;5097363;28;20024;-83
2022/03/14 00:19:07;;;;;;;8.05;6.65;;;4.80;99.90;;;;;;5095724;28;20035;-84
2022/03/14 00:21:38;;;;;;;7.38;6.32;;;4.70;99.90;;;;;;5096731;28;20035;-82
2022/03/14 00:24:07;;;;;;;7.32;6.63;;;4.80;99.90;;;;;;5096987;28;20117;-82
2022/03/14 00:26:33;;;;;;;7.43;6.10;;;4.80;99.90;;;;;;5095672;28;20017;-83
2022/03/14 00:28:59;;;;;;;7.78;5.80;;;4.80;99.90;;;;;;5096327;28;20048;-84
2022/03/14 00:31:25;;;;;;;7.82;6.20;;;4.80;99.90;;;;;;5101046;28;20027;-84
2022/03/14 00:33:51;;;;;;;8.00;6.05;;;4.80;99.90;;;;;;5100830;28;20549;-84
2022/03/14 00:36:19;;;;;;;6.45;5.85;;;4.70;99.90;;;;;;5100562;28;20024;-83
2022/03/14 00:38:46;;;;;;;6.78;6.07;;;4.70;99.90;;;;;;5099519;28;20048;-84
2022/03/14 00:41:12;;;;;;;6.70;5.45;;;4.70;99.90;;;;;;5100856;28;20076;-84
2022/03/14 00:43:39;;;;;;;6.13;5.45;;;4.70;99.90;;;;;;5099187;28;20035;-83
2022/03/14 00:46:05;;;;;;;5.60;5.10;;;4.70;99.90;;;;;;5100755;28;20027;-83
2022/03/14 00:48:32;;;;;;;6.72;4.72;;;4.80;99.90;;;;;;5099771;28;20016;-83
2022/03/14 00:50:59;;;;;;;5.18;4.68;;;4.80;99.90;;;;;;5100676;28;20024;-83
2022/03/14 00:53:25;;;;;;;4.93;4.30;;;4.80;99.90;;;;;;5100690;28;20031;-83
2022/03/14 00:55:50;;;;;;;4.30;4.00;;;4.90;99.90;;;;;;5100559;28;20020;-83
2022/03/14 00:58:16;;;;;;;4.60;4.20;;;4.90;99.90;;;;;;5100508;28;20038;-83
2022/03/14 01:00:43;;;;;;;4.82;4.40;;;4.90;99.90;;;;;;5100703;28;20056;-82
2022/03/14 01:03:09;;;;;;;4.82;4.20;;;4.90;99.90;;;;;;5099139;28;20024;-82
2022/03/14 01:05:34;;;;;;;4.78;4.38;;;4.90;99.90;;;;;;5099172;28;20028;-83
2022/03/14 01:08:00;;;;;;;4.72;4.35;;;4.90;99.90;;;;;;5100364;28;20032;-83
2022/03/14 01:10:28;;;;;;;4.90;4.50;;;4.90;99.90;;;;;;5100546;28;20020;-83
2022/03/14 01:12:54;;;;;;;4.38;4.07;;;4.90;99.90;;;;;;5101026;28;20035;-83
2022/03/14 01:15:20;;;;;;;5.32;4.82;;;4.90;99.90;;;;;;5101671;28;20114;-83
2022/03/14 01:17:45;;;;;;;8.15;4.80;;;4.90;99.90;;;;;;5101818;28;20036;-83
2022/03/14 01:20:11;;;;;;;6.53;4.82;;;5.00;99.90;;;;;;5102810;28;20024;-83
2022/03/14 01:22:40;;;;;;;6.90;5.07;;;5.00;99.90;;;;;;5102555;28;20583;-82
2022/03/14 01:25:07;;;;;;;6.15;5.18;;;5.00;99.90;;;;;;5102522;28;20036;-83
2022/03/14 01:27:33;;;;;;;6.65;5.60;;;5.10;99.90;;;;;;5104005;28;20031;-83
2022/03/14 01:29:58;;;;;;;11.02;5.90;;;5.10;99.90;;;;;;5090707;28;20021;-83
2022/03/14 01:32:24;;;;;;;10.43;5.47;;;5.10;99.90;;;;;;5103450;28;20051;-83
2022/03/14 01:34:50;;;;;;;8.18;5.80;;;5.20;99.90;;;;;;5103552;28;20377;-83
2022/03/14 01:37:18;;;;;;;12.07;5.80;;;5.20;99.90;;;;;;5102148;28;20086;-82
2022/03/14 01:39:44;;;;;;;10.90;6.05;;;5.20;99.90;;;;;;5100224;28;20051;-83
2022/03/14 01:42:16;;;;;;;9.38;6.28;;;5.30;99.90;;;;;;5099489;28;20039;-83
2022/03/14 01:44:42;;;;;;;14.27;6.90;;;5.40;99.90;;;;;;5099694;28;20028;-82
2022/03/14 01:47:08;;;;;;;13.07;7.47;;;5.50;99.90;;;;;;5099918;28;20031;-83
2022/03/14 01:49:34;;;;;;;13.90;7.53;;;5.60;99.90;;;;;;5098371;28;20020;-82
2022/03/14 01:52:00;;;;;;;12.43;6.30;;;5.60;99.90;;;;;;5084853;28;20024;-82
2022/03/14 01:54:26;;;;;;;15.63;7.20;;;5.60;99.90;;;;;;5098623;28;20119;-84
2022/03/14 01:56:53;;;;;;;12.38;7.65;;;5.70;99.90;;;;;;5099526;28;20035;-83
2022/03/14 01:59:20;;;;;;;14.68;7.30;;;5.70;99.90;;;;;;5098372;28;20024;-83
2022/03/14 02:01:46;;;;;;;15.85;7.78;;;5.70;99.90;;;;;;5099393;28;20020;-83
2022/03/14 02:04:12;;;;;;;14.35;7.28;;;5.70;99.90;;;;;;5097806;28;20053;-83
2022/03/14 02:06:39;;;;;;;15.20;7.22;;;5.70;99.90;;;;;;5097828;28;20499;-83
2022/03/14 02:09:05;;;;;;;14.43;7.00;;;5.70;99.90;;;;;;5097987;28;20027;-83
2022/03/14 02:11:31;;;;;;;13.68;7.65;;;5.70;99.90;;;;;;5098036;28;20021;-83
2022/03/14 02:13:57;;;;;;;21.40;8.07;;;5.70;99.90;;;;;;5097762;28;20031;-83
2022/03/14 02:16:23;;;;;;;16.73;8.57;;;5.80;99.90;;;;;;5098408;28;20035;-83
2022/03/14 02:18:49;;;;;;;12.65;7.90;;;5.90;99.90;;;;;;5097595;28;20024;-83
2022/03/14 02:21:15;;;;;;;19.00;8.82;;;6.00;99.90;;;;;;5097364;28;20059;-83
2022/03/14 02:23:41;;;;;;;10.73;7.47;;;6.10;99.90;;;;;;5097765;28;20525;-82
2022/03/14 02:26:07;;;;;;;21.35;9.05;;;6.20;99.90;;;;;;5097409;28;20027;-82
2022/03/14 02:28:33;;;;;;;19.30;8.88;;;6.30;99.90;;;;;;5097252;28;20373;-82
2022/03/14 02:31:03;;;;;;;16.27;9.93;;;6.40;99.90;;;;;;5098984;28;20020;-82
2022/03/14 02:33:29;;;;;;;22.15;8.88;;;6.50;99.90;;;;;;5098820;28;20008;-82
2022/03/14 02:35:55;;;;;;;16.60;8.95;;;6.50;99.90;;;;;;5096987;28;20035;-83
2022/03/14 02:38:21;;;;;;;13.82;8.70;;;6.50;99.90;;;;;;5097225;28;20024;-82
2022/03/14 02:40:48;;;;;;;15.32;8.57;;;6.50;99.90;;;;;;5098630;28;20130;-83
2022/03/14 02:43:24;;;;;;;20.33;9.02;;;6.50;99.90;;;;;;5098531;28;20477;-83
2022/03/14 02:45:53;;;;;;;15.25;8.10;;;6.60;99.90;;;;;;5097168;28;20082;-83
2022/03/14 02:48:19;;;;;;;13.48;8.50;;;6.60;99.90;;;;;;5098490;28;20051;-83
2022/03/14 02:50:49;;;;;;;13.82;7.55;;;6.70;99.90;;;;;;5098072;28;20054;-82
2022/03/14 02:53:15;;;;;;;20.63;8.57;;;6.70;99.90;;;;;;5097519;28;20019;-83
2022/03/14 02:55:41;;;;;;;20.42;10.40;;;6.80;99.90;;;;;;5097194;28;20110;-83
2022/03/14 02:58:07;;;;;;;22.17;8.95;;;6.80;99.90;;;;;;5098005;28;20024;-83
2022/03/14 03:00:35;;;;;;;18.58;8.88;;;6.80;99.90;;;;;;5097158;28;20028;-83
2022/03/14 03:03:02;;;;;;;19.38;9.15;;;6.80;99.90;;;;;;5096928;28;20123;-83
2022/03/14 03:05:31;;;;;;;15.82;8.63;;;6.90;99.90;;;;;;5097923;28;20020;-83
2022/03/14 03:07:59;;;;;;;16.05;8.85;;;6.90;99.90;;;;;;5097868;28;20024;-83
2022/03/14 03:10:26;;;;;;;25.38;8.73;;;6.90;99.90;;;;;;5098135;28;20598;-84
2022/03/14 03:12:52;;;;;;;14.30;8.90;;;6.90;99.90;;;;;;5095934;28;20027;-83
2022/03/14 03:15:19;;;;;;;15.10;8.82;;;6.90;99.90;;;;;;5097902;28;20031;-84
2022/03/14 03:17:45;;;;;;;22.98;10.18;;;7.00;99.90;;;;;;5097963;28;20056;-82
2022/03/14 03:20:11;;;;;;;22.23;9.25;;;7.00;99.90;;;;;;5097809;28;20078;-83
2022/03/14 03:22:38;;;;;;;20.55;10.07;;;7.00;99.90;;;;;;5096034;28;20038;-83
2022/03/14 03:25:07;;;;;;;20.67;10.13;;;7.10;99.90;;;;;;5097729;28;20485;-82
2022/03/14 03:27:33;;;;;;;22.45;10.27;;;7.10;99.90;;;;;;5097598;28;20102;-82
2022/03/14 03:30:03;;;;;;;17.85;9.05;;;7.20;99.90;;;;;;5097671;28;20051;-82
2022/03/14 03:32:29;;;;;;;19.17;9.45;;;7.20;99.90;;;;;;5097796;28;20027;-82
2022/03/14 03:34:55;;;;;;;20.75;11.52;;;7.20;99.90;;;;;;5096175;28;20024;-82
2022/03/14 03:37:21;;;;;;;30.13;11.98;;;7.20;99.90;;;;;;5096313;28;20032;-81
2022/03/14 03:39:47;;;;;;;26.70;11.13;;;7.20;99.90;;;;;;5097453;28;20130;-81
2022/03/14 03:42:13;;;;;;;17.95;10.02;;;7.30;99.90;;;;;;5079701;28;20052;-81
2022/03/14 03:44:39;;;;;;;31.05;11.55;;;7.30;99.90;;;;;;5076463;28;20404;-81
2022/03/14 03:47:05;;;;;;;21.00;11.15;;;7.30;99.90;;;;;;5092816;28;20020;-81
2022/03/14 03:49:32;;;;;;;20.48;10.88;;;7.40;99.90;;;;;;5096834;28;20021;-82
2022/03/14 03:51:58;;;;;;;21.75;9.93;;;7.40;99.90;;;;;;5094733;28;20024;-82
2022/03/14 03:54:24;;;;;;;20.05;10.57;;;7.40;99.90;;;;;;5095427;28;20028;-80
2022/03/14 03:56:50;;;;;;;32.83;10.93;;;7.50;99.90;;;;;;5093016;28;20024;-81
2022/03/14 03:59:16;;;;;;;19.92;9.95;;;7.50;99.90;;;;;;5092229;28;20036;-82
2022/03/14 04:01:46;;;;;;;22.95;11.13;;;7.50;99.90;;;;;;5079932;28;20029;-82
2022/03/14 04:04:12;;;;;;;28.85;10.38;;;7.50;99.90;;;;;;5080319;28;20052;-83
2022/03/14 04:06:41;;;;;;;28.23;10.52;;;7.60;99.90;;;;;;5082085;28;20021;-83
2022/03/14 04:09:07;;;;;;;17.83;11.23;;;7.50;99.90;;;;;;5083020;28;20020;-83
2022/03/14 04:11:35;;;;;;;24.00;12.20;;;7.50;99.90;;;;;;5083345;28;20028;-82
2022/03/14 04:14:01;;;;;;;22.23;11.40;;;7.50;99.90;;;;;;5082717;28;20047;-83
2022/03/14 04:16:28;;;;;;;28.40;10.88;;;7.60;99.90;;;;;;5081481;28;20024;-82
2022/03/14 04:18:55;;;;;;;23.10;12.02;;;7.60;99.90;;;;;;5081830;28;20054;-81
2022/03/14 04:21:21;;;;;;;32.10;11.65;;;7.60;99.90;;;;;;5077147;28;20035;-82
2022/03/14 04:23:48;;;;;;;31.30;12.32;;;7.60;99.90;;;;;;5099166;28;20020;-83
2022/03/14 04:26:14;;;;;;;28.98;13.32;;;7.70;99.90;;;;;;5099076;28;20024;-83
2022/03/14 04:28:41;;;;;;;24.08;12.32;;;7.70;99.90;;;;;;5100237;28;20020;-82
2022/03/14 04:31:08;;;;;;;25.15;12.02;;;7.70;99.90;;;;;;5100419;28;20023;-82
2022/03/14 04:33:34;;;;;;;28.25;14.40;;;7.70;99.90;;;;;;5100206;28;20027;-81
2022/03/14 04:36:00;;;;;;;34.45;17.70;;;7.70;99.90;;;;;;5100435;28;20024;-82
2022/03/14 04:38:27;;;;;;;23.05;12.60;;;7.70;99.90;;;;;;5096401;28;20103;-81
2022/03/14 04:40:54;;;;;;;27.83;12.80;;;7.80;99.90;;;;;;5099838;28;20067;-82
2022/03/14 04:43:24;;;;;;;25.50;12.77;;;7.80;99.90;;;;;;5099946;28;20054;-82
2022/03/14 04:45:50;;;;;;;25.02;15.32;;;7.80;99.90;;;;;;5099833;28;20404;-82
2022/03/14 04:48:17;;;;;;;34.40;15.55;;;7.80;99.90;;;;;;5098340;28;20119;-83
2022/03/14 04:50:43;;;;;;;29.40;15.90;;;7.90;99.90;;;;;;5080926;28;20459;-82
2022/03/14 04:53:09;;;;;;;38.05;16.00;;;7.90;99.90;;;;;;5084922;28;20024;-82
2022/03/14 04:55:36;;;;;;;31.50;17.27;;;7.90;99.90;;;;;;5084337;28;20027;-82
2022/03/14 04:58:06;;;;;;;29.90;18.52;;;7.90;99.90;;;;;;5082068;28;20043;-81
2022/03/14 05:00:34;;;;;;;47.25;19.67;;;8.00;99.90;;;;;;5080847;28;20020;-83
2022/03/14 05:03:02;;;;;;;32.88;18.60;;;8.00;99.90;;;;;;5083722;28;20056;-81
2022/03/14 05:05:29;;;;;;;30.50;16.35;;;8.10;99.90;;;;;;5081401;28;20531;-83
2022/03/14 05:07:55;;;;;;;37.78;19.30;;;8.10;99.90;;;;;;5085427;28;20017;-82
2022/03/14 05:10:21;;;;;;;34.47;18.17;;;8.10;99.90;;;;;;5081126;28;20063;-82
2022/03/14 05:12:48;;;;;;;37.45;18.33;;;8.10;99.90;;;;;;5083519;28;20028;-83
2022/03/14 05:15:17;;;;;;;29.50;13.23;;;8.10;99.90;;;;;;5081734;28;20032;-81
2022/03/14 05:17:44;;;;;;;20.27;12.02;;;8.20;99.90;;;;;;5082542;28;20031;-83
2022/03/14 05:20:10;;;;;;;50.10;26.13;;;8.20;99.90;;;;;;5085217;28;20024;-83
2022/03/14 05:22:48;;;;;;;39.88;20.95;;;8.20;99.90;;;;;;5099793;28;20111;-83
2022/03/14 05:25:18;;;;;;;33.63;16.45;;;8.30;99.90;;;;;;5100251;28;20028;-82
2022/03/14 05:27:44;;;;;;;35.95;18.50;;;8.30;99.90;;;;;;5098868;28;20138;-81
2022/03/14 05:30:10;;;;;;;22.45;12.85;;;8.30;99.90;;;;;;5098712;28;20028;-83
2022/03/14 05:32:39;;;;;;;27.50;13.02;;;8.30;99.90;;;;;;5098896;28;20114;-81
2022/03/14 05:35:06;;;;;;;28.13;16.38;;;8.30;99.90;;;;;;5099983;28;20104;-81
2022/03/14 05:37:32;;;;;;;31.25;16.02;;;8.30;99.90;;;;;;5098221;28;20396;-83
2022/03/14 05:39:58;;;;;;;29.65;15.80;;;8.30;99.90;;;;;;5098578;28;20048;-82
2022/03/14 05:42:25;;;;;;;47.60;25.40;;;8.30;99.90;;;;;;5098945;28;20035;-81
2022/03/14 05:44:51;;;;;;;28.98;14.38;;;8.30;99.90;;;;;;5098375;28;20111;-80
2022/03/14 05:47:19;;;;;;;36.45;19.17;;;8.40;99.90;;;;;;5098308;28;20388;-81
2022/03/14 05:49:45;;;;;;;70.88;35.42;;;8.40;99.90;;;;;;5099625;28;20019;-80
2022/03/14 05:52:12;;;;;;;30.05;16.52;;;8.30;99.90;;;;;;5099212;28;20384;-83
2022/03/14 05:54:38;;;;;;;41.92;18.00;;;8.40;99.90;;;;;;5097986;28;20522;-82
2022/03/14 05:57:05;;;;;;;112.40;51.90;;;8.40;99.90;;;;;;5099239;28;20056;-82
2022/03/14 05:59:30;;;;;;;26.05;14.27;;;8.40;99.90;;;;;;5099301;28;20036;-80
2022/03/14 06:01:56;;;;;;;79.18;35.20;;;8.40;99.90;;;;;;5098035;28;20035;-81
2022/03/14 06:04:23;;;;;;;86.80;40.80;;;8.40;99.90;;;;;;5099116;28;20445;-82
2022/03/14 06:06:49;;;;;;;37.53;16.85;;;8.40;99.90;;;;;;5099070;28;20016;-82
2022/03/14 06:09:15;;;;;;;36.35;17.25;;;8.40;99.90;;;;;;5097801;28;20434;-83
2022/03/14 06:11:41;;;;;;;34.33;18.33;;;8.40;99.90;;;;;;5099036;28;20020;-82
2022/03/14 06:14:08;;;;;;;29.75;14.55;;;8.40;99.90;;;;;;5098812;28;20019;-81
2022/03/14 06:16:34;;;;;;;39.95;16.80;;;8.50;99.90;;;;;;5099080;28;20557;-81
2022/03/14 06:19:00;;;;;;;50.40;25.40;;;8.50;99.90;;;;;;5097530;28;20031;-81
2022/03/14 06:21:26;;;;;;;49.45;24.65;;;8.50;99.90;;;;;;5098454;28;20020;-82
2022/03/14 06:23:52;;;;;;;34.35;17.48;;;8.50;99.90;;;;;;5097334;28;20030;-81
2022/03/14 06:26:18;;;;;;;42.17;16.42;;;8.50;99.90;;;;;;5098568;28;20028;-82
2022/03/14 06:28:44;;;;;;;48.22;23.63;;;8.50;99.90;;;;;;5097179;28;20023;-82
2022/03/14 06:31:11;;;;;;;39.40;18.42;;;8.50;99.90;;;;;;5096621;28;20020;-81
2022/03/14 06:33:40;;;;;;;57.50;25.73;;;8.50;99.90;;;;;;5098458;28;21500;-82
2022/03/14 06:36:06;;;;;;;35.97;15.90;;;8.50;99.90;;;;;;5098343;28;20039;-82
2022/03/14 06:38:33;;;;;;;133.85;55.75;;;8.60;99.90;;;;;;5098199;28;20031;-81
2022/03/14 06:40:59;;;;;;;50.65;18.98;;;8.50;99.90;;;;;;5098503;28;20088;-81
2022/03/14 06:43:25;;;;;;;60.28;30.23;;;8.50;99.90;;;;;;5098354;28;20028;-81
2022/03/14 06:45:51;;;;;;;37.67;17.90;;;8.60;99.90;;;;;;5097312;28;20028;-83
2022/03/14 06:48:17;;;;;;;42.50;18.23;;;8.60;99.90;;;;;;5098404;28;20044;-80
2022/03/14 06:50:44;;;;;;;51.83;21.92;;;8.60;99.90;;;;;;5098353;28;20043;-81
2022/03/14 06:53:09;;;;;;;46.05;24.33;;;8.70;99.90;;;;;;5098276;28;20095;-81
2022/03/14 06:55:35;;;;;;;34.35;17.75;;;8.70;99.90;;;;;;5098355;28;20056;-82
2022/03/14 06:58:01;;;;;;;31.90;17.15;;;8.70;99.90;;;;;;5096747;28;20024;-80
2022/03/14 07:00:27;;;;;;;27.00;15.00;;;8.70;99.90;;;;;;5096859;28;20036;-81
2022/03/14 07:02:54;;;;;;;88.72;44.10;;;8.80;99.90;;;;;;5096709;28;20024;-82
2022/03/14 07:05:23;;;;;;;33.30;14.48;;;8.80;99.90;;;;;;5097809;28;20028;-81
2022/03/14 07:07:52;;;;;;;25.45;13.88;;;8.90;99.90;;;;;;5096632;28;20024;-81
2022/03/14 07:10:19;;;;;;;43.58;20.50;;;8.90;99.90;;;;;;5095581;28;20499;-81
2022/03/14 07:12:46;;;;;;;23.10;12.45;;;9.00;99.90;;;;;;5095825;28;20024;-81
2022/03/14 07:15:18;;;;;;;27.65;12.63;;;9.00;99.90;;;;;;5098351;28;20035;-81
2022/03/14 07:17:44;;;;;;;26.38;13.98;;;9.10;99.90;;;;;;5098004;28;20423;-79
2022/03/14 07:20:11;;;;;;;33.00;20.58;;;9.10;99.90;;;;;;5097676;28;20024;-81
2022/03/14 07:22:53;;;;;;;28.70;14.32;;;9.20;99.90;;;;;;5097176;28;20055;-81
2022/03/14 07:25:26;;;;;;;91.25;54.80;;;9.20;99.90;;;;;;5097191;28;20028;-82
2022/03/14 07:27:54;;;;;;;21.77;14.68;;;9.30;99.90;;;;;;5097419;28;20027;-82
2022/03/14 07:30:21;;;;;;;24.63;11.60;;;9.40;99.90;;;;;;5079163;28;20027;-82
2022/03/14 07:32:47;;;;;;;24.65;14.77;;;9.50;99.90;;;;;;5093715;28;20114;-82
2022/03/14 07:35:14;;;;;;;63.15;33.30;;;9.60;99.90;;;;;;5095808;28;20028;-80
2022/03/14 07:37:40;;;;;;;101.72;41.15;;;9.60;99.90;;;;;;5097132;28;20049;-80
2022/03/14 07:40:11;;;;;;;179.63;71.15;;;9.70;99.90;;;;;;5096218;28;20123;-81
2022/03/14 07:42:44;;;;;;;;;;;9.70;99.90;;;;;;5096951;28;20020;-81
2022/03/14 07:45:18;;;;;;;27.20;11.80;;;9.80;99.90;;;;;;5084005;28;19916;-81
2022/03/14 07:47:44;;;;;;;24.08;11.98;;;9.80;99.90;;;;;;5096361;28;20016;-80
2022/03/14 07:50:13;;;;;;;21.05;11.85;;;9.80;99.90;;;;;;5097251;28;20017;-81
2022/03/14 07:52:39;;;;;;;27.52;15.35;;;9.90;99.90;;;;;;5097258;28;20023;-81
2022/03/14 07:55:09;;;;;;;12.45;8.38;;;9.90;99.90;;;;;;5097246;28;20459;-81
2022/03/14 07:57:38;;;;;;;31.17;15.05;;;10.00;99.90;;;;;;5096160;28;20028;-79
2022/03/14 08:00:10;;;;;;;15.90;8.50;;;10.00;99.90;;;;;;5097563;28;20442;-81
2022/03/14 08:02:37;;;;;;;23.23;11.38;;;10.10;99.90;;;;;;5095456;28;20028;-80
2022/03/14 08:05:04;;;;;;;31.05;12.55;;;10.10;99.90;;;;;;5094845;28;20028;-81
2022/03/14 08:07:30;;;;;;;19.25;8.48;;;10.10;99.90;;;;;;5096881;28;20036;-81
2022/03/14 08:09:56;;;;;;;124.90;59.15;;;10.10;99.90;;;;;;5097545;28;20024;-83
2022/03/14 08:12:22;;;;;;;61.60;37.38;;;10.10;99.90;;;;;;5095940;28;20411;-81
2022/03/14 08:14:51;;;;;;;30.15;15.07;;;10.10;99.90;;;;;;5097421;28;20057;-82
2022/03/14 08:17:19;;;;;;;41.15;15.80;;;10.20;99.90;;;;;;5096172;28;20488;-81
2022/03/14 08:19:46;;;;;;;218.23;72.07;;;10.20;99.90;;;;;;5096343;28;20092;-81
2022/03/14 08:22:12;;;;;;;40.88;16.05;;;10.20;99.90;;;;;;5096418;28;20024;-80
2022/03/14 08:24:38;;;;;;;34.55;16.00;;;10.30;99.90;;;;;;5096765;28;20111;-82
2022/03/14 08:27:04;;;;;;;17.98;8.07;;;10.20;99.90;;;;;;5096783;28;20392;-78
2022/03/14 08:29:32;;;;;;;80.25;33.72;;;10.20;99.90;;;;;;5096746;28;20031;-80
2022/03/14 08:31:59;;;;;;;17.05;8.60;;;10.30;99.90;;;;;;5096865;28;20051;-79
2022/03/14 08:34:25;;;;;;;23.50;10.77;;;10.30;99.90;;;;;;5096989;28;20470;-77
2022/03/14 08:36:51;;;;;;;11.95;7.75;;;10.30;99.90;;;;;;5095348;28;20025;-77
2022/03/14 08:39:17;;;;;;;29.55;13.07;;;10.40;99.90;;;;;;5095406;28;20432;-77
2022/03/14 08:41:43;;;;;;;83.85;32.20;;;10.40;99.90;;;;;;5096577;28;20028;-81
2022/03/14 08:44:11;;;;;;;30.17;11.73;;;10.40;99.90;;;;;;5097023;28;20020;-81
2022/03/14 08:46:38;;;;;;;43.83;16.65;;;10.40;99.90;;;;;;5089203;28;20024;-80
2022/03/14 08:49:04;;;;;;;13.75;7.13;;;10.50;99.90;;;;;;5084952;28;20020;-78
2022/03/14 08:51:29;;;;;;;19.80;10.35;;;10.50;99.90;;;;;;5097235;28;20027;-79
2022/03/14 08:53:55;;;;;;;30.17;13.43;;;10.60;99.90;;;;;;5099414;28;20031;-78
2022/03/14 08:56:21;;;;;;;15.57;8.35;;;10.60;99.90;;;;;;5100595;28;20119;-78
2022/03/14 08:58:48;;;;;;;29.42;13.73;;;10.70;99.90;;;;;;5100653;28;20049;-76
2022/03/14 09:01:15;;;;;;;15.23;7.13;;;10.80;99.90;;;;;;5100392;28;20031;-76
2022/03/14 09:03:42;;;;;;;26.88;9.18;;;10.90;99.90;;;;;;5098664;28;20031;-76
2022/03/14 09:06:08;;;;;;;17.00;7.20;;;11.00;99.90;;;;;;5099868;28;20024;-76
2022/03/14 09:08:34;;;;;;;119.80;47.95;;;11.00;99.90;;;;;;5098924;28;20028;-75
2022/03/14 09:11:01;;;;;;;66.30;30.90;;;11.00;99.90;;;;;;5098936;28;20016;-75
2022/03/14 09:13:28;;;;;;;37.53;15.52;;;11.10;99.90;;;;;;5099799;28;20020;-75
2022/03/14 09:15:54;;;;;;;19.80;8.23;;;11.30;99.90;;;;;;5098146;28;20047;-76
2022/03/14 09:18:21;;;;;;;79.03;31.08;;;11.30;99.90;;;;;;5100081;28;20028;-76
2022/03/14 09:20:49;;;;;;;35.08;15.40;;;11.40;99.90;;;;;;5098278;28;20020;-75
2022/03/14 09:23:20;;;;;;;21.70;8.40;;;11.40;99.90;;;;;;5088134;28;20398;-76
2022/03/14 09:25:47;;;;;;;17.20;6.93;;;11.50;99.90;;;;;;5096429;28;20031;-76
2022/03/14 09:28:14;;;;;;;22.23;7.88;;;11.50;99.90;;;;;;5097548;28;20020;-76
2022/03/14 09:30:40;;;;;;;15.15;7.05;;;11.60;99.90;;;;;;5096607;28;20045;-76
2022/03/14 09:33:06;;;;;;;22.80;8.02;;;11.60;99.90;;;;;;5096874;28;20020;-77
2022/03/14 09:35:34;;;;;;;37.70;14.73;;;11.60;99.90;;;;;;5097773;28;20548;-75
2022/03/14 09:38:00;;;;;;;18.00;7.55;;;11.70;99.90;;;;;;5097029;28;20098;-75
2022/03/14 09:40:30;;;;;;;22.58;8.88;;;11.70;99.90;;;;;;5096642;28;20062;-76
2022/03/14 09:42:59;;;;;;;65.78;29.27;;;11.70;99.90;;;;;;5097304;28;20036;-76
2022/03/14 09:45:26;;;;;;;26.33;12.52;;;11.80;99.90;;;;;;5099539;28;20028;-76
2022/03/14 09:47:57;;;;;;;23.55;8.40;;;11.90;99.90;;;;;;5099248;28;20025;-76
2022/03/14 09:50:39;;;;;;;27.13;11.50;;;12.00;99.90;;;;;;5097352;28;20027;-76
2022/03/14 09:53:10;;;;;;;23.65;6.60;;;12.10;99.90;;;;;;5099380;28;20028;-76
2022/03/14 09:55:46;;;;;;;;;;;12.20;99.90;;;;;;5098427;28;20048;-75
2022/03/14 09:58:18;;;;;;;18.60;5.43;;;12.30;99.90;;;;;;5097683;28;19911;-76
2022/03/14 10:00:44;;;;;;;17.75;6.30;;;12.40;99.90;;;;;;5096755;28;20059;-77
2022/03/14 10:03:11;;;;;;;16.90;5.05;;;12.50;99.90;;;;;;5098947;28;20020;-76
2022/03/14 10:05:37;;;;;;;22.00;8.43;;;12.60;99.90;;;;;;5098364;28;20076;-76
2022/03/14 10:08:03;;;;;;;18.50;8.07;;;12.70;99.90;;;;;;5097501;28;20024;-76
2022/03/14 10:10:30;;;;;;;21.65;5.75;;;12.80;99.90;;;;;;5095432;28;20028;-76
2022/03/14 10:12:59;;;;;;;13.20;5.00;;;12.90;99.90;;;;;;5097931;28;20027;-76
2022/03/14 10:15:27;;;;;;;23.83;6.93;;;12.90;99.90;;;;;;5097846;28;20030;-77
2022/03/14 10:17:57;;;;;;;16.45;5.43;;;13.00;99.90;;;;;;5098981;28;20028;-76
2022/03/14 10:20:26;;;;;;;14.48;4.78;;;13.00;99.90;;;;;;5098274;28;20599;-75
2022/03/14 10:22:57;;;;;;;13.65;4.78;;;13.10;99.90;;;;;;5090468;28;20469;-76
2022/03/14 10:25:23;;;;;;;13.55;4.40;;;13.20;99.90;;;;;;5088493;28;20043;-75
2022/03/14 10:27:57;;;;;;;6.78;4.13;;;13.30;99.90;;;;;;5081780;28;20392;-76
2022/03/14 10:30:35;;;;;;;12.13;4.50;;;13.30;99.90;;;;;;5092538;28;20028;-77
2022/03/14 10:33:11;;;;;;;14.30;5.38;;;13.30;99.90;;;;;;5096755;28;20012;-75
2022/03/14 10:35:40;;;;;;;12.00;4.55;;;13.30;99.90;;;;;;5096162;28;20526;-76
2022/03/14 10:38:08;;;;;;;18.77;5.07;;;13.40;99.90;;;;;;5098139;28;20016;-76
2022/03/14 10:40:37;;;;;;;9.63;4.70;;;13.30;99.90;;;;;;5097552;28;20044;-76
2022/03/14 10:43:25;;;;;;;14.32;5.82;;;13.30;99.90;;;;;;5097830;28;20069;-76
2022/03/14 10:45:52;;;;;;;15.00;4.47;;;13.20;99.90;;;;;;5092788;28;20586;-76
2022/03/14 10:48:34;;;;;;;20.40;4.57;;;13.10;99.90;;;;;;5097644;28;20020;-76
2022/03/14 10:51:06;;;;;;;13.70;4.50;;;13.10;99.90;;;;;;5096224;28;20078;-77
2022/03/14 10:53:34;;;;;;;10.52;4.00;;;13.10;99.90;;;;;;5096432;28;20107;-75
2022/03/14 10:56:01;;;;;;;7.95;4.20;;;13.00;99.90;;;;;;5096629;28;20127;-76
2022/03/14 10:58:33;;;;;;;14.55;4.47;;;13.00;99.90;;;;;;5098123;28;20024;-76
2022/03/14 11:01:08;;;;;;;14.32;4.65;;;13.10;99.90;;;;;;5098003;28;20023;-77
2022/03/14 11:03:42;;;;;;;23.05;5.03;;;13.00;99.90;;;;;;5096930;28;20027;-80
2022/03/14 11:06:10;;;;;;;13.00;4.68;;;13.00;99.90;;;;;;5095425;28;20024;-78
2022/03/14 11:08:37;;;;;;;14.35;4.40;;;13.10;99.90;;;;;;5098011;28;20024;-77
2022/03/14 11:11:14;;;;;;;11.80;3.97;;;13.20;99.90;;;;;;5097810;28;20024;-76
2022/03/14 11:13:45;;;;;;;13.15;3.88;;;13.20;99.90;;;;;;5095732;28;20526;-77
2022/03/14 11:16:30;;;;;;;11.00;3.70;;;13.20;99.90;;;;;;5097834;28;20046;-78
2022/03/14 11:18:57;;;;;;;12.02;4.07;;;13.10;99.90;;;;;;5096332;28;20032;-77
2022/03/14 11:21:25;;;;;;;6.90;3.88;;;13.10;99.90;;;;;;5097355;28;20490;-77
2022/03/14 11:23:53;;;;;;;14.40;4.80;;;13.00;99.90;;;;;;5096368;28;20115;-78
2022/03/14 11:26:22;;;;;;;19.52;4.47;;;12.90;99.90;;;;;;5096570;28;20085;-76
2022/03/14 11:28:50;;;;;;;10.73;4.43;;;12.90;99.90;;;;;;5096216;28;20028;-76
2022/03/14 11:31:21;;;;;;;15.88;5.22;;;12.90;99.90;;;;;;5097582;28;20024;-76
2022/03/14 11:33:47;;;;;;;22.33;5.00;;;12.80;99.90;;;;;;5097835;28;20099;-76
2022/03/14 11:36:19;;;;;;;10.50;3.75;;;12.80;99.90;;;;;;5096359;28;20028;-76
2022/03/14 11:38:46;;;;;;;10.10;5.60;;;12.80;99.90;;;;;;5095952;28;20463;-76
2022/03/14 11:41:12;;;;;;;9.13;4.45;;;12.70;99.90;;;;;;5096107;28;20032;-76
2022/03/14 11:43:40;;;;;;;8.95;5.50;;;12.70;99.90;;;;;;5097140;28;20106;-76
2022/03/14 11:46:06;;;;;;;16.73;7.85;;;12.70;99.90;;;;;;5096133;28;20116;-77
2022/03/14 11:48:34;;;;;;;20.38;9.73;;;12.70;99.90;;;;;;5097515;28;20552;-78
2022/03/14 11:51:06;;;;;;;9.50;4.00;;;12.70;99.90;;;;;;5096996;28;20016;-79
2022/03/14 11:53:36;;;;;;;14.85;6.25;;;12.60;99.90;;;;;;5097719;28;20020;-77
2022/03/14 11:56:07;;;;;;;9.27;5.23;;;12.60;99.90;;;;;;5096059;28;20024;-77
2022/03/14 11:58:42;;;;;;;12.98;4.72;;;12.60;99.90;;;;;;5088560;28;20107;-78
2022/03/14 12:01:16;;;;;;;10.80;5.03;;;12.60;99.90;;;;;;5088654;28;20039;-77
2022/03/14 12:03:46;;;;;;;27.05;6.78;;;12.60;99.90;;;;;;5095003;28;20024;-78
2022/03/14 12:06:12;;;;;;;11.98;5.38;;;12.60;99.90;;;;;;5089617;28;20027;-79
2022/03/14 12:08:38;;;;;;;16.50;5.65;;;12.60;99.90;;;;;;5086472;28;20029;-79
2022/03/14 12:11:31;;;;;;;15.32;6.32;;;12.50;99.90;;;;;;5095915;28;20480;-77
2022/03/14 12:13:57;;;;;;;19.98;5.97;;;12.50;99.90;;;;;;5095770;28;20425;-78
2022/03/14 12:16:37;;;;;;;25.08;7.20;;;12.60;99.90;;;;;;5097431;28;20031;-78
2022/03/14 12:19:27;;;;;;;18.67;6.03;;;12.50;99.90;;;;;;5095998;28;20082;-78
2022/03/14 12:21:54;;;;;;;14.85;5.43;;;12.40;99.90;;;;;;5096785;28;20028;-78
2022/03/14 12:24:36;;;;;;;19.15;6.75;;;12.30;99.90;;;;;;5096926;28;20101;-79
2022/03/14 12:27:18;;;;;;;10.40;4.40;;;12.20;99.90;;;;;;5100811;28;20023;-78
2022/03/14 12:29:46;;;;;;;21.67;4.68;;;12.20;99.90;;;;;;5099701;28;20028;-79
2022/03/14 12:32:36;;;;;;;21.52;5.40;;;12.10;99.90;;;;;;5100937;28;20134;-80
2022/03/14 12:35:08;;;;;;;15.57;4.90;;;12.10;99.90;;;;;;5099188;28;20047;-78
2022/03/14 12:37:42;;;;;;;15.32;5.75;;;12.00;99.90;;;;;;5099837;28;20032;-78
2022/03/14 12:40:33;;;;;;;20.85;5.72;;;12.00;99.90;;;;;;5100710;28;20048;-78
2022/03/14 12:43:25;;;;;;;14.45;5.90;;;12.00;99.90;;;;;;5099374;28;20507;-78
2022/03/14 12:45:57;;;;;;;27.42;5.80;;;12.00;99.90;;;;;;5100568;28;20036;-77